sensor_id;sensor_type;location;lat;lon;timestamp;pressure;altitude;pressure_sealevel;temperature;humidity
37856;BME280;23694;43.274;26.924;2022-07-21T00:02:19;98848.06;;;22.42;43.35
37856;BME280;23694;43.274;26.924;2022-07-21T00:04:45;98841.06;;;22.41;43.14
37856;BME280;23694;43.274;26.924;2022-07-21T00:07:11;98847.69;;;22.45;43.44
37856;BME280;23694;43.274;26.924;2022-07-21T00:09:37;98844.38;;;22.43;43.72
37856;BME280;23694;43.274;26.924;2022-07-21T00:12:04;98839.22;;;22.42;44.00
37856;BME280;23694;43.274;26.924;2022-07-21T00:14:30;98831.03;;;22.43;44.12
37856;BME280;23694;43.274;26.924;2022-07-21T00:16:56;98844.38;;;22.43;44.26
37856;BME280;23694;43.274;26.924;2022-07-21T00:19:23;98846.41;;;22.41;43.90
37856;BME280;23694;43.274;26.924;2022-07-21T00:21:49;98839.88;;;22.44;44.32
37856;BME280;23694;43.274;26.924;2022-07-21T00:24:15;98837.56;;;22.41;44.08
37856;BME280;23694;43.274;26.924;2022-07-21T00:26:42;98832.31;;;22.33;44.09
37856;BME280;23694;43.274;26.924;2022-07-21T00:29:08;98835.81;;;22.19;43.93
37856;BME280;23694;43.274;26.924;2022-07-21T00:31:34;98841.59;;;22.22;44.10
37856;BME280;23694;43.274;26.924;2022-07-21T00:34:00;98843.81;;;22.19;44.05
37856;BME280;23694;43.274;26.924;2022-07-21T00:36:26;98838.19;;;22.13;44.30
37856;BME280;23694;43.274;26.924;2022-07-21T00:38:52;98836.25;;;21.99;44.68
37856;BME280;23694;43.274;26.924;2022-07-21T00:41:18;98845.59;;;22.03;44.49
37856;BME280;23694;43.274;26.924;2022-07-21T00:43:44;98836.91;;;22.01;44.66
37856;BME280;23694;43.274;26.924;2022-07-21T00:46:10;98826.09;;;22.03;45.32
37856;BME280;23694;43.274;26.924;2022-07-21T00:48:37;98833.59;;;21.99;45.15
37856;BME280;23694;43.274;26.924;2022-07-21T00:51:03;98819.78;;;21.96;44.99
37856;BME280;23694;43.274;26.924;2022-07-21T00:53:29;98822.28;;;21.97;45.23
37856;BME280;23694;43.274;26.924;2022-07-21T00:55:56;98819.78;;;21.96;44.94
37856;BME280;23694;43.274;26.924;2022-07-21T00:58:23;98827.41;;;21.99;45.41
37856;BME280;23694;43.274;26.924;2022-07-21T01:00:49;98821.56;;;22.03;45.11
37856;BME280;23694;43.274;26.924;2022-07-21T01:03:15;98825.06;;;22.04;45.30
37856;BME280;23694;43.274;26.924;2022-07-21T01:05:42;98812.06;;;22.01;45.12
37856;BME280;23694;43.274;26.924;2022-07-21T01:08:08;98817.94;;;21.96;45.32
37856;BME280;23694;43.274;26.924;2022-07-21T01:10:34;98809.75;;;21.98;45.07
37856;BME280;23694;43.274;26.924;2022-07-21T01:13:01;98814.88;;;21.84;45.19
37856;BME280;23694;43.274;26.924;2022-07-21T01:15:27;98812.03;;;21.86;45.42
37856;BME280;23694;43.274;26.924;2022-07-21T01:17:54;98816.59;;;21.77;45.49
37856;BME280;23694;43.274;26.924;2022-07-21T01:20:22;98814.06;;;21.61;45.05
37856;BME280;23694;43.274;26.924;2022-07-21T01:22:52;98818.00;;;21.50;45.67
37856;BME280;23694;43.274;26.924;2022-07-21T01:25:19;98818.84;;;21.43;45.63
37856;BME280;23694;43.274;26.924;2022-07-21T01:27:46;98808.34;;;21.41;46.08
37856;BME280;23694;43.274;26.924;2022-07-21T01:30:12;98803.56;;;21.37;46.30
37856;BME280;23694;43.274;26.924;2022-07-21T01:32:40;98809.06;;;21.35;46.63
37856;BME280;23694;43.274;26.924;2022-07-21T01:35:08;98802.84;;;21.43;46.77
37856;BME280;23694;43.274;26.924;2022-07-21T01:37:39;98796.41;;;21.37;46.15
37856;BME280;23694;43.274;26.924;2022-07-21T01:40:07;98792.31;;;21.27;46.68
37856;BME280;23694;43.274;26.924;2022-07-21T01:42:52;98796.66;;;21.19;46.88
37856;BME280;23694;43.274;26.924;2022-07-21T01:45:20;98797.84;;;21.17;47.04
37856;BME280;23694;43.274;26.924;2022-07-21T01:47:46;98803.34;;;21.15;48.32
37856;BME280;23694;43.274;26.924;2022-07-21T01:50:12;98795.00;;;21.18;47.88
37856;BME280;23694;43.274;26.924;2022-07-21T01:52:38;98793.50;;;21.24;47.87
37856;BME280;23694;43.274;26.924;2022-07-21T01:55:05;98792.81;;;21.22;47.21
37856;BME280;23694;43.274;26.924;2022-07-21T01:57:31;98796.16;;;21.24;47.46
37856;BME280;23694;43.274;26.924;2022-07-21T01:59:57;98786.81;;;21.28;47.53
37856;BME280;23694;43.274;26.924;2022-07-21T02:02:23;98784.97;;;21.29;47.29
37856;BME280;23694;43.274;26.924;2022-07-21T02:04:50;98784.97;;;21.29;47.44
37856;BME280;23694;43.274;26.924;2022-07-21T02:07:16;98782.31;;;21.29;47.33
37856;BME280;23694;43.274;26.924;2022-07-21T02:09:43;98789.81;;;21.25;47.30
37856;BME280;23694;43.274;26.924;2022-07-21T02:12:09;98780.91;;;21.10;47.13
37856;BME280;23694;43.274;26.924;2022-07-21T02:14:35;98787.44;;;20.99;47.38
37856;BME280;23694;43.274;26.924;2022-07-21T02:17:02;98788.50;;;20.90;47.91
37856;BME280;23694;43.274;26.924;2022-07-21T02:19:28;98787.19;;;20.78;48.54
37856;BME280;23694;43.274;26.924;2022-07-21T02:21:54;98782.75;;;20.70;48.71
37856;BME280;23694;43.274;26.924;2022-07-21T02:24:20;98781.59;;;20.65;48.87
37856;BME280;23694;43.274;26.924;2022-07-21T02:26:46;98789.13;;;20.53;49.31
37856;BME280;23694;43.274;26.924;2022-07-21T02:29:12;98791.66;;;20.46;48.97
37856;BME280;23694;43.274;26.924;2022-07-21T02:31:39;98786.00;;;20.33;49.45
37856;BME280;23694;43.274;26.924;2022-07-21T02:34:05;98777.72;;;20.28;49.92
37856;BME280;23694;43.274;26.924;2022-07-21T02:36:33;98774.25;;;20.19;49.85
37856;BME280;23694;43.274;26.924;2022-07-21T02:38:59;98773.06;;;20.14;49.79
37856;BME280;23694;43.274;26.924;2022-07-21T02:41:25;98780.88;;;20.07;50.00
37856;BME280;23694;43.274;26.924;2022-07-21T02:43:51;98775.09;;;19.95;50.34
37856;BME280;23694;43.274;26.924;2022-07-21T02:46:17;98767.78;;;19.98;50.67
37856;BME280;23694;43.274;26.924;2022-07-21T02:48:43;98769.78;;;19.95;50.76
37856;BME280;23694;43.274;26.924;2022-07-21T02:51:09;98773.94;;;19.82;51.40
37856;BME280;23694;43.274;26.924;2022-07-21T02:53:35;98781.59;;;19.60;52.32
37856;BME280;23694;43.274;26.924;2022-07-21T02:56:01;98780.69;;;19.27;53.59
37856;BME280;23694;43.274;26.924;2022-07-21T02:58:28;98792.78;;;19.14;54.22
37856;BME280;23694;43.274;26.924;2022-07-21T03:00:58;98775.03;;;19.22;53.73
37856;BME280;23694;43.274;26.924;2022-07-21T03:03:26;98784.19;;;19.44;53.27
37856;BME280;23694;43.274;26.924;2022-07-21T03:05:53;98777.13;;;19.61;52.92
37856;BME280;23694;43.274;26.924;2022-07-21T03:08:20;98779.44;;;19.72;52.69
37856;BME280;23694;43.274;26.924;2022-07-21T03:10:46;98779.78;;;19.77;52.05
37856;BME280;23694;43.274;26.924;2022-07-21T03:13:12;98781.59;;;19.77;52.40
37856;BME280;23694;43.274;26.924;2022-07-21T03:15:39;98780.59;;;19.70;52.49
37856;BME280;23694;43.274;26.924;2022-07-21T03:18:05;98785.41;;;19.74;52.83
37856;BME280;23694;43.274;26.924;2022-07-21T03:20:33;98789.75;;;19.75;53.07
37856;BME280;23694;43.274;26.924;2022-07-21T03:23:00;98792.06;;;19.78;53.07
37856;BME280;23694;43.274;26.924;2022-07-21T03:25:27;98803.50;;;19.95;52.87
37856;BME280;23694;43.274;26.924;2022-07-21T03:27:53;98803.00;;;19.91;53.21
37856;BME280;23694;43.274;26.924;2022-07-21T03:30:19;98802.34;;;19.98;53.06
37856;BME280;23694;43.274;26.924;2022-07-21T03:32:48;98799.00;;;20.20;52.65
37856;BME280;23694;43.274;26.924;2022-07-21T03:35:14;98805.78;;;20.47;51.68
37856;BME280;23694;43.274;26.924;2022-07-21T03:37:48;98797.56;;;20.65;51.14
37856;BME280;23694;43.274;26.924;2022-07-21T03:40:17;98799.03;;;20.83;50.56
37856;BME280;23694;43.274;26.924;2022-07-21T03:42:43;98800.91;;;21.06;50.42
37856;BME280;23694;43.274;26.924;2022-07-21T03:45:10;98805.53;;;21.12;50.28
37856;BME280;23694;43.274;26.924;2022-07-21T03:47:36;98806.69;;;21.09;49.84
37856;BME280;23694;43.274;26.924;2022-07-21T03:50:04;98807.41;;;21.34;49.64
37856;BME280;23694;43.274;26.924;2022-07-21T03:52:30;98809.72;;;21.83;47.94
37856;BME280;23694;43.274;26.924;2022-07-21T03:54:56;98804.44;;;22.35;47.01
37856;BME280;23694;43.274;26.924;2022-07-21T03:58:04;98809.41;;;23.12;44.78
37856;BME280;23694;43.274;26.924;2022-07-21T04:00:37;98800.38;;;23.70;43.72
37856;BME280;23694;43.274;26.924;2022-07-21T04:03:04;98804.59;;;24.29;42.83
37856;BME280;23694;43.274;26.924;2022-07-21T04:05:32;98802.28;;;24.95;40.73
37856;BME280;23694;43.274;26.924;2022-07-21T04:07:58;98802.09;;;25.57;39.41
37856;BME280;23694;43.274;26.924;2022-07-21T04:10:27;98816.19;;;26.19;37.69
37856;BME280;23694;43.274;26.924;2022-07-21T04:12:55;98820.06;;;26.76;36.63
37856;BME280;23694;43.274;26.924;2022-07-21T04:15:21;98825.25;;;27.22;35.98
37856;BME280;23694;43.274;26.924;2022-07-21T04:17:48;98820.81;;;27.47;35.82
37856;BME280;23694;43.274;26.924;2022-07-21T04:20:15;98824.28;;;27.86;34.55
37856;BME280;23694;43.274;26.924;2022-07-21T04:22:46;98831.19;;;28.32;33.15
37856;BME280;23694;43.274;26.924;2022-07-21T04:25:13;98822.81;;;28.65;33.14
37856;BME280;23694;43.274;26.924;2022-07-21T04:27:39;98829.22;;;29.19;31.43
37856;BME280;23694;43.274;26.924;2022-07-21T04:30:07;98833.53;;;29.56;31.05
37856;BME280;23694;43.274;26.924;2022-07-21T04:32:34;98829.09;;;29.62;30.10
37856;BME280;23694;43.274;26.924;2022-07-21T04:35:00;98826.53;;;30.09;29.13
37856;BME280;23694;43.274;26.924;2022-07-21T04:37:27;98830.47;;;30.71;28.45
37856;BME280;23694;43.274;26.924;2022-07-21T04:39:53;98834.94;;;31.29;28.44
37856;BME280;23694;43.274;26.924;2022-07-21T04:42:19;98837.16;;;31.61;27.42
37856;BME280;23694;43.274;26.924;2022-07-21T04:44:45;98831.53;;;31.50;28.07
37856;BME280;23694;43.274;26.924;2022-07-21T04:47:11;98842.56;;;31.61;27.17
37856;BME280;23694;43.274;26.924;2022-07-21T04:49:37;98840.84;;;32.00;27.79
37856;BME280;23694;43.274;26.924;2022-07-21T04:52:04;98843.16;;;32.58;26.62
37856;BME280;23694;43.274;26.924;2022-07-21T04:54:30;98850.16;;;33.15;26.37
37856;BME280;23694;43.274;26.924;2022-07-21T04:56:56;98852.94;;;33.68;25.58
37856;BME280;23694;43.274;26.924;2022-07-21T04:59:22;98849.47;;;34.32;24.56
37856;BME280;23694;43.274;26.924;2022-07-21T05:01:48;98850.69;;;34.88;23.82
37856;BME280;23694;43.274;26.924;2022-07-21T05:04:14;98849.41;;;35.11;23.35
37856;BME280;23694;43.274;26.924;2022-07-21T05:06:40;98851.94;;;35.23;22.72
37856;BME280;23694;43.274;26.924;2022-07-21T05:09:06;98854.94;;;35.26;22.36
37856;BME280;23694;43.274;26.924;2022-07-21T05:11:32;98868.69;;;34.94;22.68
37856;BME280;23694;43.274;26.924;2022-07-21T05:13:58;98870.03;;;34.92;22.95
37856;BME280;23694;43.274;26.924;2022-07-21T05:16:25;98867.03;;;34.93;23.04
37856;BME280;23694;43.274;26.924;2022-07-21T05:18:51;98876.75;;;34.42;22.80
37856;BME280;23694;43.274;26.924;2022-07-21T05:21:17;98876.50;;;34.44;23.22
37856;BME280;23694;43.274;26.924;2022-07-21T05:23:43;98877.09;;;34.19;23.41
37856;BME280;23694;43.274;26.924;2022-07-21T05:26:11;98875.16;;;34.46;23.54
37856;BME280;23694;43.274;26.924;2022-07-21T05:28:38;98877.38;;;34.22;23.99
37856;BME280;23694;43.274;26.924;2022-07-21T05:31:04;98880.38;;;33.01;24.72
37856;BME280;23694;43.274;26.924;2022-07-21T05:33:31;98877.25;;;32.54;25.85
37856;BME280;23694;43.274;26.924;2022-07-21T05:35:57;98887.97;;;32.15;26.13
37856;BME280;23694;43.274;26.924;2022-07-21T05:38:23;98886.09;;;31.99;26.60
37856;BME280;23694;43.274;26.924;2022-07-21T05:40:49;98890.22;;;31.62;27.26
37856;BME280;23694;43.274;26.924;2022-07-21T05:43:15;98882.63;;;31.47;27.90
37856;BME280;23694;43.274;26.924;2022-07-21T05:45:41;98878.44;;;31.39;27.70
37856;BME280;23694;43.274;26.924;2022-07-21T05:48:07;98884.00;;;31.21;28.14
37856;BME280;23694;43.274;26.924;2022-07-21T05:50:33;98883.72;;;30.71;28.90
37856;BME280;23694;43.274;26.924;2022-07-21T05:53:00;98881.41;;;30.44;28.55
37856;BME280;23694;43.274;26.924;2022-07-21T05:55:26;98888.69;;;30.44;29.66
37856;BME280;23694;43.274;26.924;2022-07-21T05:57:52;98890.47;;;30.50;29.74
37856;BME280;23694;43.274;26.924;2022-07-21T06:00:18;98890.16;;;30.58;29.68
37856;BME280;23694;43.274;26.924;2022-07-21T06:02:45;98890.47;;;30.38;29.40
37856;BME280;23694;43.274;26.924;2022-07-21T06:05:11;98900.75;;;30.06;29.97
37856;BME280;23694;43.274;26.924;2022-07-21T06:07:39;98896.78;;;30.09;29.76
37856;BME280;23694;43.274;26.924;2022-07-21T06:10:05;98899.63;;;30.25;29.94
37856;BME280;23694;43.274;26.924;2022-07-21T06:12:32;98899.38;;;30.27;29.31
37856;BME280;23694;43.274;26.924;2022-07-21T06:14:59;98901.63;;;30.30;29.65
37856;BME280;23694;43.274;26.924;2022-07-21T06:17:25;98901.88;;;30.52;29.41
37856;BME280;23694;43.274;26.924;2022-07-21T06:19:51;98902.22;;;30.44;29.50
37856;BME280;23694;43.274;26.924;2022-07-21T06:22:17;98899.84;;;30.24;29.19
37856;BME280;23694;43.274;26.924;2022-07-21T06:24:43;98896.19;;;30.07;29.61
37856;BME280;23694;43.274;26.924;2022-07-21T06:27:09;98905.41;;;29.69;29.90
37856;BME280;23694;43.274;26.924;2022-07-21T06:29:35;98895.94;;;29.48;30.22
37856;BME280;23694;43.274;26.924;2022-07-21T06:32:01;98892.59;;;29.64;30.61
37856;BME280;23694;43.274;26.924;2022-07-21T06:34:27;98879.81;;;29.72;30.24
37856;BME280;23694;43.274;26.924;2022-07-21T06:36:53;98886.16;;;29.95;30.60
37856;BME280;23694;43.274;26.924;2022-07-21T06:39:20;98894.72;;;29.92;29.72
37856;BME280;23694;43.274;26.924;2022-07-21T06:41:46;98890.56;;;30.20;29.72
37856;BME280;23694;43.274;26.924;2022-07-21T06:44:12;98897.38;;;30.22;29.53
37856;BME280;23694;43.274;26.924;2022-07-21T06:46:38;98891.22;;;29.74;29.82
37856;BME280;23694;43.274;26.924;2022-07-21T06:49:04;98888.72;;;29.60;30.50
37856;BME280;23694;43.274;26.924;2022-07-21T06:51:30;98906.88;;;29.35;30.42
37856;BME280;23694;43.274;26.924;2022-07-21T06:53:56;98897.13;;;29.34;30.65
37856;BME280;23694;43.274;26.924;2022-07-21T06:56:22;98898.69;;;29.23;31.25
37856;BME280;23694;43.274;26.924;2022-07-21T06:58:49;98897.22;;;29.46;31.49
37856;BME280;23694;43.274;26.924;2022-07-21T07:01:15;98890.41;;;29.73;30.38
37856;BME280;23694;43.274;26.924;2022-07-21T07:03:42;98896.72;;;29.97;31.09
37856;BME280;23694;43.274;26.924;2022-07-21T07:06:10;98889.38;;;30.04;30.06
37856;BME280;23694;43.274;26.924;2022-07-21T07:08:37;98899.78;;;29.71;30.22
37856;BME280;23694;43.274;26.924;2022-07-21T07:11:04;98897.03;;;29.22;31.06
37856;BME280;23694;43.274;26.924;2022-07-21T07:13:31;98901.63;;;29.03;31.32
37856;BME280;23694;43.274;26.924;2022-07-21T07:15:57;98917.94;;;28.90;31.61
37856;BME280;23694;43.274;26.924;2022-07-21T07:18:23;98900.63;;;28.98;31.65
37856;BME280;23694;43.274;26.924;2022-07-21T07:20:49;98905.88;;;29.11;31.68
37856;BME280;23694;43.274;26.924;2022-07-21T07:23:16;98906.47;;;28.95;31.70
37856;BME280;23694;43.274;26.924;2022-07-21T07:25:42;98899.22;;;28.95;31.36
37856;BME280;23694;43.274;26.924;2022-07-21T07:28:08;98901.84;;;28.84;31.39
37856;BME280;23694;43.274;26.924;2022-07-21T07:30:35;98902.94;;;28.51;32.27
37856;BME280;23694;43.274;26.924;2022-07-21T07:33:01;98895.78;;;28.63;32.58
37856;BME280;23694;43.274;26.924;2022-07-21T07:35:27;98898.13;;;28.78;32.65
37856;BME280;23694;43.274;26.924;2022-07-21T07:37:54;98887.13;;;28.80;32.86
37856;BME280;23694;43.274;26.924;2022-07-21T07:40:22;98889.72;;;29.29;32.37
37856;BME280;23694;43.274;26.924;2022-07-21T07:42:49;98890.50;;;29.66;31.29
37856;BME280;23694;43.274;26.924;2022-07-21T07:45:16;98881.22;;;29.92;30.45
37856;BME280;23694;43.274;26.924;2022-07-21T07:47:42;98881.16;;;30.11;30.36
37856;BME280;23694;43.274;26.924;2022-07-21T07:50:10;98889.97;;;30.18;29.90
37856;BME280;23694;43.274;26.924;2022-07-21T07:52:39;98890.59;;;30.43;29.94
37856;BME280;23694;43.274;26.924;2022-07-21T07:55:05;98888.53;;;30.69;29.73
37856;BME280;23694;43.274;26.924;2022-07-21T07:57:34;98895.69;;;30.63;29.11
37856;BME280;23694;43.274;26.924;2022-07-21T08:00:03;98885.78;;;30.92;28.36
37856;BME280;23694;43.274;26.924;2022-07-21T08:02:29;98894.53;;;30.71;28.83
37856;BME280;23694;43.274;26.924;2022-07-21T08:04:55;98886.19;;;30.61;29.27
37856;BME280;23694;43.274;26.924;2022-07-21T08:07:21;98892.88;;;30.81;28.84
37856;BME280;23694;43.274;26.924;2022-07-21T08:09:47;98900.59;;;31.01;29.03
37856;BME280;23694;43.274;26.924;2022-07-21T08:12:13;98888.13;;;31.24;28.63
37856;BME280;23694;43.274;26.924;2022-07-21T08:14:39;98885.97;;;31.66;28.05
37856;BME280;23694;43.274;26.924;2022-07-21T08:17:05;98882.72;;;31.92;27.83
37856;BME280;23694;43.274;26.924;2022-07-21T08:19:31;98880.00;;;31.92;27.25
37856;BME280;23694;43.274;26.924;2022-07-21T08:21:58;98889.19;;;31.91;27.96
37856;BME280;23694;43.274;26.924;2022-07-21T08:24:24;98881.16;;;32.13;27.86
37856;BME280;23694;43.274;26.924;2022-07-21T08:26:50;98882.97;;;32.07;27.01
37856;BME280;23694;43.274;26.924;2022-07-21T08:29:16;98882.41;;;32.05;27.50
37856;BME280;23694;43.274;26.924;2022-07-21T08:31:42;98884.06;;;31.78;27.74
37856;BME280;23694;43.274;26.924;2022-07-21T08:34:09;98877.28;;;31.35;28.33
37856;BME280;23694;43.274;26.924;2022-07-21T08:36:35;98872.72;;;31.52;27.97
37856;BME280;23694;43.274;26.924;2022-07-21T08:39:01;98877.09;;;31.82;27.69
37856;BME280;23694;43.274;26.924;2022-07-21T08:41:27;98878.56;;;31.61;27.42
37856;BME280;23694;43.274;26.924;2022-07-21T08:43:53;98876.50;;;31.23;28.40
37856;BME280;23694;43.274;26.924;2022-07-21T08:46:23;98883.47;;;30.61;28.92
37856;BME280;23694;43.274;26.924;2022-07-21T08:48:49;98872.03;;;30.58;29.04
37856;BME280;23694;43.274;26.924;2022-07-21T08:51:16;98873.94;;;30.70;28.97
37856;BME280;23694;43.274;26.924;2022-07-21T08:53:46;98867.19;;;30.25;29.71
37856;BME280;23694;43.274;26.924;2022-07-21T08:56:13;98861.91;;;30.19;29.55
37856;BME280;23694;43.274;26.924;2022-07-21T08:58:39;98872.00;;;30.12;29.83
37856;BME280;23694;43.274;26.924;2022-07-21T09:01:05;98858.03;;;30.38;29.27
37856;BME280;23694;43.274;26.924;2022-07-21T09:03:32;98866.50;;;30.18;29.67
37856;BME280;23694;43.274;26.924;2022-07-21T09:06:09;98863.09;;;30.35;29.43
37856;BME280;23694;43.274;26.924;2022-07-21T09:08:39;98870.59;;;30.44;29.23
37856;BME280;23694;43.274;26.924;2022-07-21T09:11:14;98863.34;;;30.91;28.89
37856;BME280;23694;43.274;26.924;2022-07-21T09:13:42;98860.66;;;30.68;28.94
37856;BME280;23694;43.274;26.924;2022-07-21T09:16:09;98853.50;;;31.14;28.48
37856;BME280;23694;43.274;26.924;2022-07-21T09:18:51;98863.63;;;31.30;27.74
37856;BME280;23694;43.274;26.924;2022-07-21T09:21:19;98858.38;;;31.00;28.32
37856;BME280;23694;43.274;26.924;2022-07-21T09:23:45;98847.09;;;30.91;29.13
37856;BME280;23694;43.274;26.924;2022-07-21T09:26:12;98843.66;;;31.19;28.35
37856;BME280;23694;43.274;26.924;2022-07-21T09:28:40;98843.38;;;30.81;28.58
37856;BME280;23694;43.274;26.924;2022-07-21T09:31:08;98850.06;;;30.90;28.80
37856;BME280;23694;43.274;26.924;2022-07-21T09:33:42;98854.50;;;30.96;28.66
37856;BME280;23694;43.274;26.924;2022-07-21T09:36:19;98853.69;;;30.96;28.61
37856;BME280;23694;43.274;26.924;2022-07-21T09:38:51;98854.41;;;31.43;28.28
37856;BME280;23694;43.274;26.924;2022-07-21T09:41:22;98846.41;;;31.65;27.13
37856;BME280;23694;43.274;26.924;2022-07-21T09:43:49;98843.44;;;31.78;27.05
37856;BME280;23694;43.274;26.924;2022-07-21T09:46:21;98848.56;;;32.08;27.21
37856;BME280;23694;43.274;26.924;2022-07-21T09:48:50;98834.69;;;32.55;26.56
37856;BME280;23694;43.274;26.924;2022-07-21T09:51:20;98843.63;;;32.72;26.15
37856;BME280;23694;43.274;26.924;2022-07-21T09:53:55;98841.50;;;32.40;26.17
37856;BME280;23694;43.274;26.924;2022-07-21T09:56:22;98848.06;;;32.11;27.05
37856;BME280;23694;43.274;26.924;2022-07-21T09:58:51;98839.13;;;32.10;26.93
37856;BME280;23694;43.274;26.924;2022-07-21T10:01:18;98836.41;;;32.44;26.72
37856;BME280;23694;43.274;26.924;2022-07-21T10:03:46;98837.13;;;32.73;27.29
37856;BME280;23694;43.274;26.924;2022-07-21T10:06:18;98835.09;;;32.46;27.14
37856;BME280;23694;43.274;26.924;2022-07-21T10:08:44;98832.81;;;32.05;27.73
37856;BME280;23694;43.274;26.924;2022-07-21T10:11:11;98827.78;;;32.13;27.51
37856;BME280;23694;43.274;26.924;2022-07-21T10:13:38;98846.81;;;31.85;27.40
37856;BME280;23694;43.274;26.924;2022-07-21T10:16:08;98826.31;;;31.61;27.30
37856;BME280;23694;43.274;26.924;2022-07-21T10:18:38;98827.19;;;31.78;27.03
37856;BME280;23694;43.274;26.924;2022-07-21T10:21:18;98814.41;;;32.07;26.79
37856;BME280;23694;43.274;26.924;2022-07-21T10:23:50;98824.75;;;32.43;26.92
37856;BME280;23694;43.274;26.924;2022-07-21T10:26:18;98819.91;;;32.45;26.95
37856;BME280;23694;43.274;26.924;2022-07-21T10:28:45;98823.34;;;32.58;27.07
37856;BME280;23694;43.274;26.924;2022-07-21T10:31:21;98830.13;;;32.77;26.39
37856;BME280;23694;43.274;26.924;2022-07-21T10:41:39;98822.28;;;31.46;28.06
37856;BME280;23694;43.274;26.924;2022-07-21T10:57:46;98805.06;;;31.52;28.11
37856;BME280;23694;43.274;26.924;2022-07-21T11:08:37;98789.06;;;31.68;27.80
37856;BME280;23694;43.274;26.924;2022-07-21T11:11:27;98787.41;;;31.95;27.54
37856;BME280;23694;43.274;26.924;2022-07-21T11:14:14;98794.06;;;31.88;26.84
37856;BME280;23694;43.274;26.924;2022-07-21T11:21:52;98795.41;;;32.57;26.39
37856;BME280;23694;43.274;26.924;2022-07-21T11:24:22;98791.78;;;32.90;26.27
37856;BME280;23694;43.274;26.924;2022-07-21T11:27:06;98792.97;;;32.39;26.83
37856;BME280;23694;43.274;26.924;2022-07-21T11:29:34;98790.88;;;32.24;26.51
37856;BME280;23694;43.274;26.924;2022-07-21T11:32:01;98793.72;;;32.17;26.79
37856;BME280;23694;43.274;26.924;2022-07-21T11:34:48;98785.09;;;32.04;26.37
37856;BME280;23694;43.274;26.924;2022-07-21T11:37:47;98780.88;;;32.46;26.18
37856;BME280;23694;43.274;26.924;2022-07-21T11:40:20;98772.25;;;32.88;26.10
37856;BME280;23694;43.274;26.924;2022-07-21T11:42:50;98782.00;;;32.67;26.15
37856;BME280;23694;43.274;26.924;2022-07-21T11:45:17;98788.75;;;32.48;26.29
37856;BME280;23694;43.274;26.924;2022-07-21T11:47:43;98781.06;;;32.40;26.54
37856;BME280;23694;43.274;26.924;2022-07-21T11:50:15;98786.97;;;32.37;26.48
37856;BME280;23694;43.274;26.924;2022-07-21T11:52:42;98781.00;;;32.35;27.05
37856;BME280;23694;43.274;26.924;2022-07-21T11:55:10;98777.59;;;32.44;26.29
37856;BME280;23694;43.274;26.924;2022-07-21T11:57:45;98780.75;;;32.36;26.20
37856;BME280;23694;43.274;26.924;2022-07-21T12:00:13;98773.31;;;32.48;25.98
37856;BME280;23694;43.274;26.924;2022-07-21T12:02:41;98784.44;;;32.69;25.91
37856;BME280;23694;43.274;26.924;2022-07-21T12:05:08;98774.03;;;32.61;25.66
37856;BME280;23694;43.274;26.924;2022-07-21T12:07:45;98781.78;;;32.52;26.64
37856;BME280;23694;43.274;26.924;2022-07-21T12:10:25;98770.06;;;32.68;26.42
37856;BME280;23694;43.274;26.924;2022-07-21T12:13:01;98770.69;;;32.75;26.25
37856;BME280;23694;43.274;26.924;2022-07-21T12:15:30;98777.41;;;32.90;25.96
37856;BME280;23694;43.274;26.924;2022-07-21T12:18:04;98775.84;;;32.94;26.30
37856;BME280;23694;43.274;26.924;2022-07-21T12:20:41;98778.66;;;33.04;26.11
37856;BME280;23694;43.274;26.924;2022-07-21T12:23:40;98770.72;;;33.46;25.66
37856;BME280;23694;43.274;26.924;2022-07-21T12:26:06;98769.97;;;33.51;25.02
37856;BME280;23694;43.274;26.924;2022-07-21T12:28:47;98762.16;;;33.59;24.79
37856;BME280;23694;43.274;26.924;2022-07-21T12:31:18;98761.00;;;33.50;24.97
37856;BME280;23694;43.274;26.924;2022-07-21T12:33:55;98757.25;;;33.29;24.77
37856;BME280;23694;43.274;26.924;2022-07-21T12:36:22;98763.31;;;33.36;25.65
37856;BME280;23694;43.274;26.924;2022-07-21T12:38:49;98771.78;;;33.18;25.53
37856;BME280;23694;43.274;26.924;2022-07-21T12:41:18;98766.78;;;33.10;25.53
37856;BME280;23694;43.274;26.924;2022-07-21T12:43:55;98770.38;;;33.16;25.90
37856;BME280;23694;43.274;26.924;2022-07-21T12:46:31;98760.34;;;33.16;26.41
37856;BME280;23694;43.274;26.924;2022-07-21T12:49:08;98755.56;;;33.23;25.70
37856;BME280;23694;43.274;26.924;2022-07-21T12:51:39;98763.56;;;33.13;25.99
37856;BME280;23694;43.274;26.924;2022-07-21T12:54:07;98760.47;;;33.26;25.64
37856;BME280;23694;43.274;26.924;2022-07-21T12:56:35;98769.38;;;33.22;25.43
37856;BME280;23694;43.274;26.924;2022-07-21T12:59:02;98765.28;;;33.19;25.60
37856;BME280;23694;43.274;26.924;2022-07-21T13:01:30;98769.06;;;33.18;25.60
37856;BME280;23694;43.274;26.924;2022-07-21T13:04:01;98765.47;;;33.34;25.68
37856;BME280;23694;43.274;26.924;2022-07-21T13:06:28;98753.06;;;33.44;25.47
37856;BME280;23694;43.274;26.924;2022-07-21T13:08:54;98751.25;;;33.27;25.79
37856;BME280;23694;43.274;26.924;2022-07-21T13:11:20;98751.47;;;33.21;26.28
37856;BME280;23694;43.274;26.924;2022-07-21T13:13:47;98762.31;;;32.77;26.29
37856;BME280;23694;43.274;26.924;2022-07-21T13:16:15;98757.56;;;32.45;26.90
37856;BME280;23694;43.274;26.924;2022-07-21T13:18:41;98761.94;;;32.30;27.07
37856;BME280;23694;43.274;26.924;2022-07-21T13:21:08;98759.28;;;32.52;26.95
37856;BME280;23694;43.274;26.924;2022-07-21T13:23:34;98757.16;;;32.37;26.91
37856;BME280;23694;43.274;26.924;2022-07-21T13:26:00;98758.16;;;32.14;27.27
37856;BME280;23694;43.274;26.924;2022-07-21T13:28:26;98755.06;;;32.05;27.38
37856;BME280;23694;43.274;26.924;2022-07-21T13:30:52;98751.44;;;32.16;27.51